createdAt,value
2019-03-29T00:02:30.623Z,6.50
2019-03-29T00:05:20.155Z,6.45
2019-03-29T00:08:05.974Z,6.60
2019-03-29T00:10:51.974Z,6.45
2019-03-29T00:16:23.324Z,6.60
2019-03-29T00:19:09.363Z,6.58
2019-03-29T00:21:55.644Z,6.55
2019-03-29T00:24:41.476Z,7.20
2019-03-29T00:27:27.587Z,6.62
2019-03-29T00:30:13.384Z,6.35
2019-03-29T00:32:59.328Z,5.97
2019-03-29T00:38:34.301Z,5.73
2019-03-29T00:41:20.493Z,6.30
2019-03-29T00:44:06.453Z,6.42
2019-03-29T00:46:53.212Z,6.55
2019-03-29T00:49:39.254Z,6.65
2019-03-29T00:52:29.600Z,6.30
2019-03-29T00:55:16.219Z,7.25
2019-03-29T00:58:02.253Z,6.80
2019-03-29T01:00:48.720Z,6.85
2019-03-29T01:03:34.524Z,6.47
2019-03-29T01:06:20.571Z,7.22
2019-03-29T01:11:54.058Z,6.47
2019-03-29T01:14:39.748Z,6.20
2019-03-29T01:17:25.839Z,7.00
2019-03-29T01:20:11.705Z,6.70
2019-03-29T01:22:59.082Z,6.72
2019-03-29T01:25:45.417Z,6.72
2019-03-29T01:28:31.075Z,6.35
2019-03-29T01:31:16.947Z,7.20
2019-03-29T01:34:02.741Z,7.47
2019-03-29T01:36:48.672Z,6.80
2019-03-29T01:42:20.096Z,6.85
2019-03-29T01:45:06.686Z,7.65
2019-03-29T01:47:53.011Z,7.25
2019-03-29T01:50:38.889Z,7.37
2019-03-29T01:53:24.727Z,6.87
2019-03-29T01:56:10.482Z,7.53
2019-03-29T01:58:56.489Z,7.35
2019-03-29T02:01:42.390Z,7.08
2019-03-29T02:04:28.138Z,6.95
2019-03-29T02:07:13.893Z,7.70
2019-03-29T02:12:45.252Z,6.53
2019-03-29T02:15:31.135Z,6.58
2019-03-29T02:18:17.003Z,7.33
2019-03-29T02:21:02.772Z,7.50
2019-03-29T02:23:48.681Z,6.47
2019-03-29T02:26:34.923Z,7.58
2019-03-29T02:29:20.972Z,7.78
2019-03-29T02:32:06.787Z,7.37
2019-03-29T02:34:52.641Z,7.45
2019-03-29T02:37:38.789Z,7.87
2019-03-29T02:40:24.731Z,8.78
2019-03-29T02:43:11.098Z,7.45
2019-03-29T02:45:57.814Z,8.08
2019-03-29T02:48:44.687Z,8.30
2019-03-29T02:51:32.709Z,8.00
2019-03-29T02:54:18.866Z,9.18
2019-03-29T02:57:04.653Z,8.83
2019-03-29T02:59:50.653Z,9.30
2019-03-29T03:05:21.946Z,8.85
2019-03-29T03:08:07.800Z,9.05
2019-03-29T03:10:53.600Z,8.38
2019-03-29T03:13:39.409Z,8.45
2019-03-29T03:16:25.389Z,9.38
2019-03-29T03:19:11.237Z,9.18
2019-03-29T03:21:57.115Z,8.75
2019-03-29T03:24:43.074Z,9.43
2019-03-29T03:27:28.884Z,8.85
2019-03-29T03:35:47.145Z,8.45
2019-03-29T03:41:18.554Z,8.50
2019-03-29T03:44:04.444Z,9.10
2019-03-29T03:46:50.500Z,8.93
2019-03-29T03:49:36.227Z,9.20
2019-03-29T03:55:07.633Z,8.53
2019-03-29T03:57:57.451Z,9.63
2019-03-29T04:00:54.180Z,9.05
2019-03-29T04:03:40.096Z,8.95
2019-03-29T04:09:11.510Z,8.58
2019-03-29T04:11:57.564Z,8.73
2019-03-29T04:17:48.350Z,8.40
2019-03-29T04:20:34.219Z,9.08
2019-03-29T04:26:05.578Z,7.65
2019-03-29T04:29:04.030Z,8.60
2019-03-29T04:31:39.567Z,8.75
2019-03-29T04:34:25.418Z,8.48
2019-03-29T04:37:11.417Z,8.60
2019-03-29T04:40:07.096Z,8.63
2019-03-29T04:42:45.176Z,8.50
2019-03-29T04:45:31.161Z,9.13
2019-03-29T04:48:17.049Z,8.75
2019-03-29T04:51:02.944Z,9.55
2019-03-29T04:56:34.240Z,7.65
2019-03-29T04:59:20.134Z,6.95
2019-03-29T05:02:06.003Z,7.78
2019-03-29T05:04:51.824Z,7.78
2019-03-29T05:10:23.192Z,7.25
2019-03-29T05:15:54.565Z,7.03
2019-03-29T05:18:40.456Z,6.58
2019-03-29T05:24:11.848Z,6.53
2019-03-29T05:26:57.689Z,6.58
2019-03-29T05:32:28.994Z,6.15
2019-03-29T05:35:14.958Z,6.62
2019-03-29T05:40:46.164Z,7.03
2019-03-29T05:43:32.321Z,6.70
2019-03-29T05:46:18.244Z,6.37
2019-03-29T05:51:49.478Z,5.95
2019-03-29T05:54:35.364Z,7.00
2019-03-29T05:57:21.644Z,6.65
2019-03-29T06:00:08.296Z,6.95
2019-03-29T06:02:54.609Z,7.03
2019-03-29T06:05:40.453Z,6.60
2019-03-29T06:08:26.264Z,6.67
2019-03-29T06:13:57.597Z,5.95
2019-03-29T06:16:43.436Z,6.37
2019-03-29T06:19:29.545Z,6.35
2019-03-29T06:25:00.951Z,5.37
2019-03-29T06:27:46.792Z,5.95
2019-03-29T06:30:32.660Z,6.97
2019-03-29T06:36:04.014Z,6.20
2019-03-29T06:38:49.863Z,6.28
2019-03-29T06:44:21.208Z,6.35
2019-03-29T06:47:07.173Z,6.00
2019-03-29T06:49:52.998Z,5.90
2019-03-29T06:52:38.900Z,5.90
2019-03-29T06:58:10.159Z,5.22
2019-03-29T07:00:56.010Z,5.80
2019-03-29T07:03:41.844Z,5.78
2019-03-29T07:06:30.453Z,7.15
2019-03-29T07:09:15.461Z,7.20
2019-03-29T07:12:01.411Z,7.17
2019-03-29T07:14:47.202Z,6.42
2019-03-29T07:20:18.478Z,6.08
2019-03-29T07:23:04.509Z,5.90
2019-03-29T07:25:50.422Z,7.17
2019-03-29T07:28:36.372Z,7.12
2019-03-29T07:31:22.339Z,6.45
2019-03-29T07:34:08.304Z,6.53
2019-03-29T07:36:54.346Z,6.62
2019-03-29T07:39:40.733Z,7.35
2019-03-29T07:42:26.689Z,7.80
2019-03-29T07:47:57.990Z,7.55
2019-03-29T07:50:43.808Z,8.40
2019-03-29T07:56:15.265Z,7.75
2019-03-29T07:59:01.095Z,8.28
2019-03-29T08:01:47.064Z,8.80
2019-03-29T08:04:32.878Z,9.10
2019-03-29T08:10:06.260Z,8.98
2019-03-29T08:12:52.193Z,10.05
2019-03-29T08:18:23.554Z,11.95
2019-03-29T08:21:09.507Z,11.45
2019-03-29T08:23:56.290Z,11.73
2019-03-29T08:26:42.178Z,11.45
2019-03-29T08:29:31.196Z,13.53
2019-03-29T08:32:16.080Z,13.75
2019-03-29T08:35:02.996Z,13.35
2019-03-29T08:37:48.947Z,13.35
2019-03-29T08:40:34.684Z,14.73
2019-03-29T08:43:20.619Z,17.07
2019-03-29T08:48:52.074Z,17.15
2019-03-29T08:51:41.209Z,17.30
2019-03-29T08:54:26.025Z,19.48
2019-03-29T08:57:11.913Z,35.33
2019-03-29T08:59:57.678Z,33.75
2019-03-29T09:02:43.477Z,32.93
2019-03-29T09:05:29.553Z,33.60
2019-03-29T09:08:15.295Z,34.13
2019-03-29T09:11:01.201Z,34.48
2019-03-29T09:16:32.963Z,35.55
2019-03-29T09:19:21.277Z,35.28
2019-03-29T09:22:08.151Z,34.00
2019-03-29T09:24:55.754Z,37.90
2019-03-29T09:27:43.988Z,37.30
2019-03-29T09:30:32.088Z,40.65
2019-03-29T09:33:18.261Z,40.58
2019-03-29T09:36:05.113Z,39.05
2019-03-29T09:38:51.757Z,41.33
2019-03-29T09:41:37.908Z,38.30
2019-03-29T09:44:23.793Z,39.33
2019-03-29T09:47:10.729Z,38.75
2019-03-29T09:49:56.825Z,37.30
2019-03-29T09:52:45.164Z,38.23
2019-03-29T09:55:31.027Z,37.70
2019-03-29T09:58:22.405Z,37.98
2019-03-29T10:01:08.358Z,38.05
2019-03-29T10:03:54.841Z,35.90
2019-03-29T10:06:43.844Z,37.75
2019-03-29T10:09:32.659Z,38.92
2019-03-29T10:12:20.414Z,38.60
2019-03-29T10:15:08.287Z,37.67
2019-03-29T10:17:57.528Z,38.67
2019-03-29T10:20:44.529Z,37.50
2019-03-29T10:23:31.243Z,37.33
2019-03-29T10:26:19.195Z,35.80
2019-03-29T10:29:05.213Z,36.38
2019-03-29T10:34:39.067Z,35.70
2019-03-29T10:37:26.686Z,34.20
2019-03-29T10:40:13.008Z,35.13
2019-03-29T10:42:59.267Z,34.85
2019-03-29T10:45:47.634Z,34.80
2019-03-29T10:48:35.466Z,33.58
2019-03-29T10:51:24.189Z,33.38
2019-03-29T10:54:12.320Z,32.20
2019-03-29T10:57:00.504Z,30.02
2019-03-29T10:59:46.711Z,30.25
2019-03-29T11:02:32.556Z,29.63
2019-03-29T11:05:18.331Z,29.57
2019-03-29T11:08:04.470Z,27.52
2019-03-29T11:10:50.589Z,29.52
2019-03-29T11:16:22.049Z,30.15
2019-03-29T11:19:07.857Z,29.52
2019-03-29T11:24:39.185Z,28.57
2019-03-29T11:27:24.992Z,28.65
2019-03-29T11:32:56.428Z,25.08
2019-03-29T11:35:42.368Z,27.37
2019-03-29T11:38:28.235Z,26.07
2019-03-29T11:43:59.544Z,24.05
2019-03-29T11:46:45.356Z,22.98
2019-03-29T11:49:31.119Z,23.60
2019-03-29T11:52:17.242Z,22.70
2019-03-29T11:57:48.496Z,20.70
2019-03-29T12:00:35.320Z,20.45
2019-03-29T12:03:21.121Z,22.00
2019-03-29T12:06:07.588Z,22.50
2019-03-29T12:08:56.917Z,19.85
2019-03-29T12:11:41.553Z,20.27
2019-03-29T12:17:12.853Z,19.12
2019-03-29T12:19:58.669Z,19.15
2019-03-29T12:22:44.765Z,20.82
2019-03-29T12:28:16.082Z,19.50
2019-03-29T12:33:47.436Z,19.95
2019-03-29T12:36:33.386Z,21.07
2019-03-29T12:39:19.558Z,19.67
2019-03-29T12:44:50.916Z,17.50
2019-03-29T12:47:36.969Z,18.37
2019-03-29T12:50:22.937Z,18.67
2019-03-29T12:55:54.173Z,19.17
2019-03-29T13:01:38.469Z,20.50
2019-03-29T13:04:13.509Z,18.00
2019-03-29T13:06:59.401Z,19.75
2019-03-29T13:12:30.661Z,17.15
2019-03-29T13:15:16.333Z,18.98
2019-03-29T13:20:48.185Z,18.10
2019-03-29T13:23:34.193Z,20.17
2019-03-29T13:26:20.142Z,17.87
2019-03-29T13:31:52.999Z,15.72
2019-03-29T13:34:41.657Z,16.93
2019-03-29T13:37:27.995Z,16.57
2019-03-29T13:40:15.040Z,16.95
2019-03-29T13:43:01.433Z,15.32
2019-03-29T13:45:47.359Z,15.85
2019-03-29T13:48:35.163Z,15.75
2019-03-29T13:51:24.993Z,16.27
2019-03-29T13:54:12.899Z,16.45
2019-03-29T13:57:03.035Z,16.97
2019-03-29T13:59:49.580Z,14.25
2019-03-29T14:02:39.146Z,14.73
2019-03-29T14:05:27.534Z,18.92
2019-03-29T14:08:14.138Z,14.87
2019-03-29T14:11:03.879Z,14.93
2019-03-29T14:13:51.527Z,14.85
2019-03-29T14:16:38.040Z,15.88
2019-03-29T14:19:25.941Z,16.77
2019-03-29T14:22:15.647Z,21.77
2019-03-29T14:25:01.924Z,15.43
2019-03-29T14:27:49.132Z,14.40
2019-03-29T14:30:39.244Z,14.43
2019-03-29T14:33:27.804Z,14.85
2019-03-29T14:36:13.930Z,14.43
2019-03-29T14:39:01.040Z,15.40
2019-03-29T14:41:47.488Z,15.40
2019-03-29T14:47:19.349Z,14.93
2019-03-29T14:50:05.986Z,18.10
2019-03-29T14:52:51.883Z,18.02
2019-03-29T14:55:37.764Z,18.57
2019-03-29T15:01:08.927Z,17.50
2019-03-29T15:03:55.012Z,18.15
2019-03-29T15:06:40.830Z,30.40
2019-03-29T15:09:26.801Z,25.97
2019-03-29T15:15:05.933Z,27.02
2019-03-29T15:17:45.942Z,26.97
2019-03-29T15:20:31.740Z,26.45
2019-03-29T15:23:17.736Z,24.65
2019-03-29T15:26:03.756Z,22.98
2019-03-29T15:31:35.200Z,21.00
2019-03-29T15:34:21.023Z,20.55
2019-03-29T15:39:52.392Z,18.98
2019-03-29T15:48:09.526Z,19.07
2019-03-29T15:53:41.012Z,21.25
2019-03-29T15:56:26.692Z,21.37
2019-03-29T16:01:57.826Z,19.62
2019-03-29T16:07:29.155Z,19.65
2019-03-29T16:13:00.457Z,19.10
2019-03-29T16:15:46.417Z,22.48
2019-03-29T16:21:17.582Z,19.77
2019-03-29T16:24:03.633Z,20.17
2019-03-29T16:26:50.067Z,20.62
2019-03-29T16:29:36.321Z,19.67
2019-03-29T16:35:07.686Z,20.12
2019-03-29T16:37:57.491Z,18.82
2019-03-29T16:40:42.430Z,21.10
2019-03-29T16:46:14.027Z,20.80
2019-03-29T16:49:00.093Z,20.92
2019-03-29T16:51:45.996Z,20.65
2019-03-29T16:54:31.820Z,19.52
2019-03-29T17:00:04.501Z,19.42
2019-03-29T17:02:50.762Z,19.80
2019-03-29T17:08:21.864Z,18.10
2019-03-29T17:13:53.402Z,19.40
2019-03-29T17:16:39.158Z,19.55
2019-03-29T17:22:10.776Z,18.52
2019-03-29T17:24:57.464Z,19.50
2019-03-29T17:27:43.499Z,19.87
2019-03-29T17:30:37.601Z,19.75
2019-03-29T17:33:23.330Z,20.62
2019-03-29T17:38:54.409Z,20.40
2019-03-29T17:41:40.235Z,21.27
2019-03-29T17:47:11.626Z,20.88
2019-03-29T17:49:57.441Z,21.57
2019-03-29T17:55:31.616Z,21.70
2019-03-29T17:58:16.661Z,23.07
2019-03-29T18:03:47.937Z,21.50
2019-03-29T18:06:33.705Z,23.20
2019-03-29T18:09:19.779Z,23.80
2019-03-29T18:12:05.504Z,23.60
2019-03-29T18:17:36.854Z,21.95
2019-03-29T18:20:23.018Z,22.95
2019-03-29T18:23:09.160Z,22.98
2019-03-29T18:25:54.872Z,22.80
2019-03-29T18:28:40.757Z,22.58
2019-03-29T18:31:26.738Z,23.92
2019-03-29T18:34:12.602Z,23.87
2019-03-29T18:36:58.561Z,24.15
2019-03-29T18:39:44.408Z,22.22
2019-03-29T18:42:30.264Z,23.70
2019-03-29T18:45:16.264Z,24.40
2019-03-29T18:48:02.092Z,23.32
2019-03-29T18:50:47.964Z,23.25
2019-03-29T18:53:33.758Z,23.25
2019-03-29T18:56:19.649Z,23.02
2019-03-29T18:59:05.777Z,24.40
2019-03-29T19:01:51.536Z,24.85
2019-03-29T19:04:37.432Z,25.82
2019-03-29T19:07:27.579Z,24.37
2019-03-29T19:10:13.317Z,25.25
2019-03-29T19:12:59.165Z,24.67
2019-03-29T19:18:30.675Z,24.25
2019-03-29T19:24:01.945Z,24.12
2019-03-29T19:26:47.688Z,25.82
2019-03-29T19:32:19.168Z,24.90
2019-03-29T19:35:05.224Z,25.88
2019-03-29T19:37:50.971Z,25.97
2019-03-29T19:40:36.904Z,25.05
2019-03-29T19:43:22.880Z,26.87
2019-03-29T19:46:08.666Z,23.95
2019-03-29T19:48:54.565Z,25.20
2019-03-29T19:54:25.972Z,26.40
2019-03-29T19:57:11.750Z,25.80
2019-03-29T19:59:57.556Z,26.05
2019-03-29T20:02:43.479Z,26.70
2019-03-29T20:05:29.460Z,26.50
2019-03-29T20:08:15.476Z,27.20
2019-03-29T20:11:01.306Z,27.70
2019-03-29T20:13:47.340Z,27.37
2019-03-29T20:16:33.112Z,27.73
2019-03-29T20:19:20.223Z,27.93
2019-03-29T20:22:06.325Z,28.27
2019-03-29T20:24:52.294Z,26.02
2019-03-29T20:30:24.237Z,26.50
2019-03-29T20:33:13.182Z,28.85
2019-03-29T20:35:58.172Z,27.87
2019-03-29T20:38:44.126Z,28.20
2019-03-29T20:41:29.929Z,26.87
2019-03-29T20:44:15.887Z,28.15
2019-03-29T20:47:01.800Z,28.85
2019-03-29T20:49:47.793Z,28.27
2019-03-29T20:52:33.620Z,29.02
2019-03-29T20:55:19.468Z,26.95
2019-03-29T21:00:50.969Z,25.80
2019-03-29T21:03:36.937Z,28.60
2019-03-29T21:09:08.282Z,26.82
2019-03-29T21:14:39.729Z,26.12
2019-03-29T21:17:25.606Z,28.60
2019-03-29T21:22:56.967Z,27.02
2019-03-29T21:25:46.161Z,29.27
2019-03-29T21:28:34.932Z,29.82
2019-03-29T21:31:21.308Z,29.00
2019-03-29T21:34:07.860Z,29.42
2019-03-29T21:36:54.334Z,31.35
2019-03-29T21:39:42.211Z,30.08
2019-03-29T21:42:29.442Z,29.15
2019-03-29T21:45:27.987Z,29.82
2019-03-29T21:48:27.225Z,29.85
2019-03-29T21:50:53.231Z,28.60
2019-03-29T21:53:39.007Z,29.30
2019-03-29T21:56:25.186Z,28.98
2019-03-29T21:59:11.848Z,29.98
2019-03-29T22:01:58.112Z,30.23
2019-03-29T22:07:29.422Z,27.40
2019-03-29T22:10:15.300Z,29.18
2019-03-29T22:13:03.489Z,29.98
2019-03-29T22:15:49.824Z,30.30
2019-03-29T22:18:38.413Z,28.73
2019-03-29T22:21:27.929Z,29.02
2019-03-29T22:24:17.286Z,29.70
2019-03-29T22:27:04.751Z,29.90
2019-03-29T22:29:52.378Z,29.52
2019-03-29T22:32:40.288Z,29.55
2019-03-29T22:35:26.326Z,29.27
2019-03-29T22:38:12.199Z,29.65
2019-03-29T22:40:58.628Z,30.95
2019-03-29T22:43:45.060Z,28.77
2019-03-29T22:46:31.200Z,29.82
2019-03-29T22:49:17.592Z,29.15
2019-03-29T22:52:03.244Z,28.70
2019-03-29T22:54:49.135Z,30.12
2019-03-29T22:57:35.068Z,30.43
2019-03-29T23:00:25.218Z,28.80
2019-03-29T23:03:10.795Z,30.35
2019-03-29T23:08:42.100Z,27.45
2019-03-29T23:11:27.865Z,29.60
2019-03-29T23:14:13.581Z,29.20
2019-03-29T23:16:59.763Z,29.30
2019-03-29T23:19:46.015Z,28.65
2019-03-29T23:22:31.956Z,29.65
2019-03-29T23:25:17.694Z,27.65
2019-03-29T23:28:03.752Z,29.32
2019-03-29T23:30:49.727Z,28.20
2019-03-29T23:33:35.540Z,27.75
2019-03-29T23:36:21.558Z,28.87
2019-03-29T23:39:07.299Z,29.23
2019-03-29T23:44:38.740Z,27.93
2019-03-29T23:47:24.569Z,29.40
2019-03-29T23:50:10.503Z,29.63
2019-03-29T23:52:56.418Z,30.00
2019-03-29T23:55:42.437Z,28.52
2019-03-29T23:58:28.476Z,29.37
